sensor_id;sensor_type;location;lat;lon;timestamp;P1;durP1;ratioP1;P2;durP2;ratioP2
74241;SDS011;62599;49.146;10.426;2023-02-25T00:02:22;5.45;;;2.17;;
74241;SDS011;62599;49.146;10.426;2023-02-25T00:04:48;2.45;;;1.52;;
74241;SDS011;62599;49.146;10.426;2023-02-25T00:07:13;6.23;;;1.77;;
74241;SDS011;62599;49.146;10.426;2023-02-25T00:09:39;1.88;;;1.42;;
74241;SDS011;62599;49.146;10.426;2023-02-25T00:12:05;2.65;;;1.58;;
74241;SDS011;62599;49.146;10.426;2023-02-25T00:14:30;1.25;;;0.82;;
74241;SDS011;62599;49.146;10.426;2023-02-25T00:16:56;4.55;;;2.10;;
74241;SDS011;62599;49.146;10.426;2023-02-25T00:19:25;0.90;;;0.75;;
74241;SDS011;62599;49.146;10.426;2023-02-25T00:21:50;5.65;;;1.33;;
74241;SDS011;62599;49.146;10.426;2023-02-25T00:24:16;4.70;;;1.25;;
74241;SDS011;62599;49.146;10.426;2023-02-25T00:26:42;1.17;;;1.07;;
74241;SDS011;62599;49.146;10.426;2023-02-25T00:29:08;2.97;;;1.40;;
74241;SDS011;62599;49.146;10.426;2023-02-25T00:31:33;1.38;;;0.85;;
74241;SDS011;62599;49.146;10.426;2023-02-25T00:33:58;6.00;;;2.00;;
74241;SDS011;62599;49.146;10.426;2023-02-25T00:36:24;4.80;;;2.50;;
74241;SDS011;62599;49.146;10.426;2023-02-25T00:38:52;3.90;;;1.67;;
74241;SDS011;62599;49.146;10.426;2023-02-25T00:41:20;5.10;;;1.85;;
74241;SDS011;62599;49.146;10.426;2023-02-25T00:43:53;5.90;;;3.10;;
74241;SDS011;62599;49.146;10.426;2023-02-25T00:46:20;7.95;;;0.80;;
74241;SDS011;62599;49.146;10.426;2023-02-25T00:48:45;3.05;;;0.70;;
74241;SDS011;62599;49.146;10.426;2023-02-25T00:53:38;1.67;;;1.10;;
74241;SDS011;62599;49.146;10.426;2023-02-25T00:56:05;2.70;;;1.50;;
74241;SDS011;62599;49.146;10.426;2023-02-25T00:58:36;10.80;;;2.88;;
74241;SDS011;62599;49.146;10.426;2023-02-25T01:01:02;1.35;;;1.23;;
74241;SDS011;62599;49.146;10.426;2023-02-25T01:03:30;1.60;;;1.02;;
74241;SDS011;62599;49.146;10.426;2023-02-25T01:05:56;4.00;;;2.15;;
74241;SDS011;62599;49.146;10.426;2023-02-25T01:08:21;4.67;;;1.70;;
74241;SDS011;62599;49.146;10.426;2023-02-25T01:10:46;3.30;;;1.87;;
74241;SDS011;62599;49.146;10.426;2023-02-25T01:13:15;1.17;;;1.00;;
74241;SDS011;62599;49.146;10.426;2023-02-25T01:15:40;1.88;;;1.38;;
74241;SDS011;62599;49.146;10.426;2023-02-25T01:18:06;3.15;;;1.52;;
74241;SDS011;62599;49.146;10.426;2023-02-25T01:20:32;3.38;;;1.92;;
74241;SDS011;62599;49.146;10.426;2023-02-25T01:23:02;4.70;;;2.55;;
74241;SDS011;62599;49.146;10.426;2023-02-25T01:25:28;7.60;;;2.00;;
74241;SDS011;62599;49.146;10.426;2023-02-25T01:27:54;4.37;;;2.53;;
74241;SDS011;62599;49.146;10.426;2023-02-25T01:30:21;2.10;;;1.90;;
74241;SDS011;62599;49.146;10.426;2023-02-25T01:32:46;2.92;;;1.05;;
74241;SDS011;62599;49.146;10.426;2023-02-25T01:35:12;3.33;;;2.13;;
74241;SDS011;62599;49.146;10.426;2023-02-25T01:37:37;1.83;;;0.93;;
74241;SDS011;62599;49.146;10.426;2023-02-25T01:40:03;5.45;;;2.33;;
74241;SDS011;62599;49.146;10.426;2023-02-25T01:42:29;0.85;;;0.70;;
74241;SDS011;62599;49.146;10.426;2023-02-25T01:48:05;5.93;;;2.25;;
74241;SDS011;62599;49.146;10.426;2023-02-25T01:50:43;1.85;;;0.95;;
74241;SDS011;62599;49.146;10.426;2023-02-25T01:53:13;1.48;;;0.73;;
74241;SDS011;62599;49.146;10.426;2023-02-25T01:55:41;4.10;;;1.40;;
74241;SDS011;62599;49.146;10.426;2023-02-25T01:58:07;6.15;;;2.28;;
74241;SDS011;62599;49.146;10.426;2023-02-25T02:00:36;1.80;;;0.82;;
74241;SDS011;62599;49.146;10.426;2023-02-25T02:03:02;5.95;;;2.70;;
74241;SDS011;62599;49.146;10.426;2023-02-25T02:05:34;2.72;;;1.27;;
74241;SDS011;62599;49.146;10.426;2023-02-25T02:08:09;3.58;;;1.42;;
74241;SDS011;62599;49.146;10.426;2023-02-25T02:10:35;0.90;;;0.75;;
74241;SDS011;62599;49.146;10.426;2023-02-25T02:13:00;5.10;;;1.57;;
74241;SDS011;62599;49.146;10.426;2023-02-25T02:15:26;1.50;;;0.88;;
74241;SDS011;62599;49.146;10.426;2023-02-25T02:17:59;1.30;;;1.20;;
74241;SDS011;62599;49.146;10.426;2023-02-25T02:31:37;0.70;;;0.63;;
74241;SDS011;62599;49.146;10.426;2023-02-25T02:39:23;2.83;;;1.23;;
74241;SDS011;62599;49.146;10.426;2023-02-25T02:41:57;2.67;;;1.25;;
74241;SDS011;62599;49.146;10.426;2023-02-25T02:44:35;2.25;;;1.35;;
74241;SDS011;62599;49.146;10.426;2023-02-25T02:47:50;3.35;;;1.63;;
74241;SDS011;62599;49.146;10.426;2023-02-25T02:50:02;2.80;;;1.05;;
74241;SDS011;62599;49.146;10.426;2023-02-25T02:52:32;1.40;;;0.90;;
74241;SDS011;62599;49.146;10.426;2023-02-25T02:55:03;1.15;;;1.05;;
74241;SDS011;62599;49.146;10.426;2023-02-25T02:57:34;2.70;;;1.40;;
74241;SDS011;62599;49.146;10.426;2023-02-25T03:00:04;1.73;;;1.27;;
74241;SDS011;62599;49.146;10.426;2023-02-25T03:02:41;4.80;;;1.77;;
74241;SDS011;62599;49.146;10.426;2023-02-25T03:05:16;4.07;;;1.63;;
74241;SDS011;62599;49.146;10.426;2023-02-25T03:07:44;1.00;;;0.93;;
74241;SDS011;62599;49.146;10.426;2023-02-25T03:10:26;1.52;;;1.00;;
74241;SDS011;62599;49.146;10.426;2023-02-25T03:12:51;0.82;;;0.63;;
74241;SDS011;62599;49.146;10.426;2023-02-25T03:15:17;0.93;;;0.40;;
74241;SDS011;62599;49.146;10.426;2023-02-25T03:17:50;2.92;;;0.98;;
74241;SDS011;62599;49.146;10.426;2023-02-25T03:20:22;2.17;;;1.33;;
74241;SDS011;62599;49.146;10.426;2023-02-25T03:22:52;1.88;;;1.50;;
74241;SDS011;62599;49.146;10.426;2023-02-25T03:27:52;0.68;;;0.43;;
74241;SDS011;62599;49.146;10.426;2023-02-25T03:33:10;3.28;;;1.48;;
74241;SDS011;62599;49.146;10.426;2023-02-25T03:35:40;1.58;;;0.65;;
74241;SDS011;62599;49.146;10.426;2023-02-25T03:38:10;0.57;;;0.57;;
74241;SDS011;62599;49.146;10.426;2023-02-25T03:40:43;0.57;;;0.50;;
74241;SDS011;62599;49.146;10.426;2023-02-25T03:43:14;3.83;;;1.15;;
74241;SDS011;62599;49.146;10.426;2023-02-25T03:45:45;1.20;;;0.90;;
74241;SDS011;62599;49.146;10.426;2023-02-25T03:48:12;2.78;;;0.90;;
74241;SDS011;62599;49.146;10.426;2023-02-25T03:50:46;0.45;;;0.45;;
74241;SDS011;62599;49.146;10.426;2023-02-25T03:53:15;4.05;;;0.85;;
74241;SDS011;62599;49.146;10.426;2023-02-25T03:55:40;0.93;;;0.83;;
74241;SDS011;62599;49.146;10.426;2023-02-25T03:58:06;7.30;;;1.70;;
74241;SDS011;62599;49.146;10.426;2023-02-25T04:00:33;0.73;;;0.70;;
74241;SDS011;62599;49.146;10.426;2023-02-25T04:02:58;1.65;;;1.08;;
74241;SDS011;62599;49.146;10.426;2023-02-25T04:05:25;3.60;;;0.95;;
74241;SDS011;62599;49.146;10.426;2023-02-25T04:07:52;0.25;;;0.25;;
74241;SDS011;62599;49.146;10.426;2023-02-25T04:10:21;0.38;;;0.38;;
74241;SDS011;62599;49.146;10.426;2023-02-25T04:12:47;2.20;;;1.45;;
74241;SDS011;62599;49.146;10.426;2023-02-25T04:15:16;0.40;;;0.32;;
74241;SDS011;62599;49.146;10.426;2023-02-25T04:17:42;1.77;;;0.55;;
74241;SDS011;62599;49.146;10.426;2023-02-25T04:20:10;2.53;;;0.85;;
74241;SDS011;62599;49.146;10.426;2023-02-25T04:22:36;1.00;;;0.82;;
74241;SDS011;62599;49.146;10.426;2023-02-25T04:25:02;5.60;;;0.65;;
74241;SDS011;62599;49.146;10.426;2023-02-25T04:27:28;0.52;;;0.20;;
74241;SDS011;62599;49.146;10.426;2023-02-25T04:29:56;0.47;;;0.47;;
74241;SDS011;62599;49.146;10.426;2023-02-25T04:32:21;2.42;;;0.80;;
74241;SDS011;62599;49.146;10.426;2023-02-25T04:34:50;1.03;;;0.50;;
74241;SDS011;62599;49.146;10.426;2023-02-25T04:37:15;0.90;;;0.22;;
74241;SDS011;62599;49.146;10.426;2023-02-25T04:39:41;4.32;;;0.52;;
74241;SDS011;62599;49.146;10.426;2023-02-25T04:42:06;1.27;;;1.02;;
74241;SDS011;62599;49.146;10.426;2023-02-25T04:44:32;0.30;;;0.10;;
74241;SDS011;62599;49.146;10.426;2023-02-25T04:46:57;0.20;;;0.10;;
74241;SDS011;62599;49.146;10.426;2023-02-25T04:49:23;2.20;;;1.60;;
74241;SDS011;62599;49.146;10.426;2023-02-25T04:51:49;1.10;;;1.00;;
74241;SDS011;62599;49.146;10.426;2023-02-25T04:54:15;0.68;;;0.65;;
74241;SDS011;62599;49.146;10.426;2023-02-25T04:56:42;0.10;;;0.10;;
74241;SDS011;62599;49.146;10.426;2023-02-25T04:59:08;2.40;;;0.63;;
74241;SDS011;62599;49.146;10.426;2023-02-25T05:01:36;2.20;;;1.08;;
74241;SDS011;62599;49.146;10.426;2023-02-25T05:04:02;4.22;;;0.82;;
74241;SDS011;62599;49.146;10.426;2023-02-25T05:06:28;0.30;;;0.30;;
74241;SDS011;62599;49.146;10.426;2023-02-25T05:08:54;0.52;;;0.47;;
74241;SDS011;62599;49.146;10.426;2023-02-25T05:11:22;2.58;;;1.02;;
74241;SDS011;62599;49.146;10.426;2023-02-25T05:13:49;2.83;;;0.85;;
74241;SDS011;62599;49.146;10.426;2023-02-25T05:16:15;0.43;;;0.38;;
74241;SDS011;62599;49.146;10.426;2023-02-25T05:18:42;2.00;;;1.30;;
74241;SDS011;62599;49.146;10.426;2023-02-25T05:21:14;1.63;;;1.48;;
74241;SDS011;62599;49.146;10.426;2023-02-25T05:23:41;0.88;;;0.88;;
74241;SDS011;62599;49.146;10.426;2023-02-25T05:26:08;2.00;;;1.40;;
74241;SDS011;62599;49.146;10.426;2023-02-25T05:28:35;2.92;;;1.08;;
74241;SDS011;62599;49.146;10.426;2023-02-25T05:31:04;1.35;;;1.25;;
74241;SDS011;62599;49.146;10.426;2023-02-25T05:33:30;2.25;;;0.95;;
74241;SDS011;62599;49.146;10.426;2023-02-25T05:35:56;0.95;;;0.47;;
74241;SDS011;62599;49.146;10.426;2023-02-25T05:38:21;3.93;;;1.13;;
74241;SDS011;62599;49.146;10.426;2023-02-25T05:40:47;1.63;;;0.45;;
74241;SDS011;62599;49.146;10.426;2023-02-25T05:43:12;6.10;;;1.83;;
74241;SDS011;62599;49.146;10.426;2023-02-25T05:45:37;8.03;;;1.67;;
74241;SDS011;62599;49.146;10.426;2023-02-25T05:48:03;1.23;;;0.90;;
74241;SDS011;62599;49.146;10.426;2023-02-25T05:50:28;4.20;;;2.30;;
74241;SDS011;62599;49.146;10.426;2023-02-25T05:52:56;4.95;;;1.02;;
74241;SDS011;62599;49.146;10.426;2023-02-25T05:55:21;2.10;;;0.68;;
74241;SDS011;62599;49.146;10.426;2023-02-25T05:57:46;3.95;;;1.00;;
74241;SDS011;62599;49.146;10.426;2023-02-25T06:00:12;2.95;;;1.35;;
74241;SDS011;62599;49.146;10.426;2023-02-25T06:02:41;2.42;;;1.50;;
74241;SDS011;62599;49.146;10.426;2023-02-25T06:05:08;0.77;;;0.65;;
74241;SDS011;62599;49.146;10.426;2023-02-25T06:07:34;8.55;;;2.03;;
74241;SDS011;62599;49.146;10.426;2023-02-25T06:10:00;0.38;;;0.35;;
74241;SDS011;62599;49.146;10.426;2023-02-25T06:12:29;2.60;;;1.27;;
74241;SDS011;62599;49.146;10.426;2023-02-25T06:14:56;1.25;;;0.95;;
74241;SDS011;62599;49.146;10.426;2023-02-25T06:17:22;4.10;;;1.58;;
74241;SDS011;62599;49.146;10.426;2023-02-25T06:19:51;1.33;;;0.28;;
74241;SDS011;62599;49.146;10.426;2023-02-25T06:22:20;3.45;;;1.38;;
74241;SDS011;62599;49.146;10.426;2023-02-25T06:24:46;3.92;;;1.27;;
74241;SDS011;62599;49.146;10.426;2023-02-25T06:27:15;5.13;;;1.48;;
74241;SDS011;62599;49.146;10.426;2023-02-25T06:29:45;1.30;;;0.95;;
74241;SDS011;62599;49.146;10.426;2023-02-25T06:32:11;1.70;;;0.90;;
74241;SDS011;62599;49.146;10.426;2023-02-25T06:34:39;2.13;;;1.02;;
74241;SDS011;62599;49.146;10.426;2023-02-25T06:37:06;1.13;;;0.88;;
74241;SDS011;62599;49.146;10.426;2023-02-25T06:39:34;2.90;;;1.70;;
74241;SDS011;62599;49.146;10.426;2023-02-25T06:41:59;1.10;;;0.40;;
74241;SDS011;62599;49.146;10.426;2023-02-25T06:44:25;3.08;;;0.40;;
74241;SDS011;62599;49.146;10.426;2023-02-25T06:46:53;2.25;;;1.30;;
74241;SDS011;62599;49.146;10.426;2023-02-25T06:49:21;2.58;;;1.42;;
74241;SDS011;62599;49.146;10.426;2023-02-25T06:51:48;0.38;;;0.38;;
74241;SDS011;62599;49.146;10.426;2023-02-25T06:54:14;2.92;;;1.33;;
74241;SDS011;62599;49.146;10.426;2023-02-25T06:56:40;2.60;;;1.67;;
74241;SDS011;62599;49.146;10.426;2023-02-25T06:59:06;0.63;;;0.50;;
74241;SDS011;62599;49.146;10.426;2023-02-25T07:01:32;2.58;;;0.88;;
74241;SDS011;62599;49.146;10.426;2023-02-25T07:03:57;5.35;;;1.15;;
74241;SDS011;62599;49.146;10.426;2023-02-25T07:06:25;6.78;;;0.50;;
74241;SDS011;62599;49.146;10.426;2023-02-25T07:08:51;1.52;;;1.02;;
74241;SDS011;62599;49.146;10.426;2023-02-25T07:13:42;2.92;;;0.70;;
74241;SDS011;62599;49.146;10.426;2023-02-25T07:16:12;0.85;;;0.77;;
74241;SDS011;62599;49.146;10.426;2023-02-25T07:18:39;0.98;;;0.63;;
74241;SDS011;62599;49.146;10.426;2023-02-25T07:21:05;1.50;;;0.70;;
74241;SDS011;62599;49.146;10.426;2023-02-25T07:23:30;4.30;;;1.02;;
74241;SDS011;62599;49.146;10.426;2023-02-25T07:25:56;0.98;;;0.80;;
74241;SDS011;62599;49.146;10.426;2023-02-25T07:28:21;1.20;;;0.60;;
74241;SDS011;62599;49.146;10.426;2023-02-25T07:30:46;4.22;;;0.73;;
74241;SDS011;62599;49.146;10.426;2023-02-25T07:33:12;10.85;;;0.98;;
74241;SDS011;62599;49.146;10.426;2023-02-25T07:35:37;3.73;;;1.37;;
74241;SDS011;62599;49.146;10.426;2023-02-25T07:38:03;5.43;;;2.83;;
74241;SDS011;62599;49.146;10.426;2023-02-25T07:40:28;3.80;;;2.47;;
74241;SDS011;62599;49.146;10.426;2023-02-25T07:42:53;2.23;;;1.50;;
74241;SDS011;62599;49.146;10.426;2023-02-25T07:45:22;1.13;;;0.77;;
74241;SDS011;62599;49.146;10.426;2023-02-25T07:47:47;2.88;;;1.38;;
74241;SDS011;62599;49.146;10.426;2023-02-25T07:50:16;2.15;;;1.33;;
74241;SDS011;62599;49.146;10.426;2023-02-25T07:52:41;0.70;;;0.50;;
74241;SDS011;62599;49.146;10.426;2023-02-25T07:55:07;3.60;;;0.47;;
74241;SDS011;62599;49.146;10.426;2023-02-25T07:57:35;0.82;;;0.70;;
74241;SDS011;62599;49.146;10.426;2023-02-25T08:00:01;5.18;;;1.13;;
74241;SDS011;62599;49.146;10.426;2023-02-25T08:02:28;0.28;;;0.25;;
74241;SDS011;62599;49.146;10.426;2023-02-25T08:04:54;6.33;;;1.07;;
74241;SDS011;62599;49.146;10.426;2023-02-25T08:07:19;2.17;;;0.77;;
74241;SDS011;62599;49.146;10.426;2023-02-25T08:09:47;1.53;;;1.07;;
74241;SDS011;62599;49.146;10.426;2023-02-25T08:12:13;3.75;;;1.20;;
74241;SDS011;62599;49.146;10.426;2023-02-25T08:14:38;5.75;;;1.88;;
74241;SDS011;62599;49.146;10.426;2023-02-25T08:17:04;0.30;;;0.30;;
74241;SDS011;62599;49.146;10.426;2023-02-25T08:19:29;1.60;;;0.90;;
74241;SDS011;62599;49.146;10.426;2023-02-25T08:21:55;11.98;;;1.25;;
74241;SDS011;62599;49.146;10.426;2023-02-25T08:24:20;0.93;;;0.52;;
74241;SDS011;62599;49.146;10.426;2023-02-25T08:26:46;1.00;;;0.88;;
74241;SDS011;62599;49.146;10.426;2023-02-25T08:29:12;2.90;;;0.80;;
74241;SDS011;62599;49.146;10.426;2023-02-25T08:31:38;2.38;;;0.60;;
74241;SDS011;62599;49.146;10.426;2023-02-25T08:34:03;2.10;;;1.07;;
74241;SDS011;62599;49.146;10.426;2023-02-25T08:36:29;0.57;;;0.35;;
74241;SDS011;62599;49.146;10.426;2023-02-25T08:38:55;4.18;;;1.08;;
74241;SDS011;62599;49.146;10.426;2023-02-25T08:41:25;0.95;;;0.55;;
74241;SDS011;62599;49.146;10.426;2023-02-25T08:43:52;0.75;;;0.75;;
74241;SDS011;62599;49.146;10.426;2023-02-25T08:46:20;1.30;;;0.38;;
74241;SDS011;62599;49.146;10.426;2023-02-25T08:48:47;0.65;;;0.65;;
74241;SDS011;62599;49.146;10.426;2023-02-25T08:51:13;1.33;;;0.50;;
74241;SDS011;62599;49.146;10.426;2023-02-25T08:53:39;0.13;;;0.13;;
74241;SDS011;62599;49.146;10.426;2023-02-25T08:56:09;3.90;;;1.20;;
74241;SDS011;62599;49.146;10.426;2023-02-25T08:58:37;8.00;;;0.80;;
74241;SDS011;62599;49.146;10.426;2023-02-25T09:01:07;0.73;;;0.68;;
74241;SDS011;62599;49.146;10.426;2023-02-25T09:03:37;1.00;;;0.45;;
74241;SDS011;62599;49.146;10.426;2023-02-25T09:06:03;0.52;;;0.47;;
74241;SDS011;62599;49.146;10.426;2023-02-25T09:08:29;2.33;;;0.80;;
74241;SDS011;62599;49.146;10.426;2023-02-25T09:10:55;1.52;;;0.40;;
74241;SDS011;62599;49.146;10.426;2023-02-25T09:13:21;2.85;;;0.60;;
74241;SDS011;62599;49.146;10.426;2023-02-25T09:15:54;0.65;;;0.65;;
74241;SDS011;62599;49.146;10.426;2023-02-25T09:18:22;2.05;;;0.20;;
74241;SDS011;62599;49.146;10.426;2023-02-25T09:20:49;1.23;;;0.82;;
74241;SDS011;62599;49.146;10.426;2023-02-25T09:23:14;0.38;;;0.25;;
74241;SDS011;62599;49.146;10.426;2023-02-25T09:25:43;1.40;;;0.82;;
74241;SDS011;62599;49.146;10.426;2023-02-25T09:28:10;3.00;;;0.50;;
74241;SDS011;62599;49.146;10.426;2023-02-25T09:30:37;2.22;;;0.98;;
74241;SDS011;62599;49.146;10.426;2023-02-25T09:33:02;1.45;;;0.52;;
74241;SDS011;62599;49.146;10.426;2023-02-25T09:35:28;2.90;;;0.98;;
74241;SDS011;62599;49.146;10.426;2023-02-25T09:37:54;2.00;;;0.70;;
74241;SDS011;62599;49.146;10.426;2023-02-25T09:40:19;0.90;;;0.45;;
74241;SDS011;62599;49.146;10.426;2023-02-25T09:42:51;2.97;;;1.33;;
74241;SDS011;62599;49.146;10.426;2023-02-25T09:45:25;3.63;;;0.57;;
74241;SDS011;62599;49.146;10.426;2023-02-25T09:47:58;7.10;;;1.52;;
74241;SDS011;62599;49.146;10.426;2023-02-25T09:50:38;0.73;;;0.63;;
74241;SDS011;62599;49.146;10.426;2023-02-25T09:53:20;0.60;;;0.60;;
74241;SDS011;62599;49.146;10.426;2023-02-25T09:55:52;8.40;;;0.70;;
74241;SDS011;62599;49.146;10.426;2023-02-25T10:03:51;0.88;;;0.43;;
74241;SDS011;62599;49.146;10.426;2023-02-25T10:06:26;3.33;;;1.77;;
74241;SDS011;62599;49.146;10.426;2023-02-25T10:11:51;0.45;;;0.45;;
74241;SDS011;62599;49.146;10.426;2023-02-25T10:22:24;2.58;;;0.50;;
74241;SDS011;62599;49.146;10.426;2023-02-25T10:27:36;2.42;;;0.95;;
74241;SDS011;62599;49.146;10.426;2023-02-25T10:30:06;0.30;;;0.30;;
74241;SDS011;62599;49.146;10.426;2023-02-25T10:32:43;2.20;;;0.60;;
74241;SDS011;62599;49.146;10.426;2023-02-25T10:35:15;1.73;;;1.02;;
74241;SDS011;62599;49.146;10.426;2023-02-25T10:37:44;0.63;;;0.43;;
74241;SDS011;62599;49.146;10.426;2023-02-25T10:40:12;1.48;;;0.32;;
74241;SDS011;62599;49.146;10.426;2023-02-25T10:42:40;1.27;;;0.65;;
74241;SDS011;62599;49.146;10.426;2023-02-25T10:45:10;2.83;;;0.73;;
74241;SDS011;62599;49.146;10.426;2023-02-25T10:47:41;2.22;;;1.10;;
74241;SDS011;62599;49.146;10.426;2023-02-25T10:50:11;1.17;;;1.10;;
74241;SDS011;62599;49.146;10.426;2023-02-25T10:52:53;1.55;;;0.75;;
74241;SDS011;62599;49.146;10.426;2023-02-25T11:08:52;4.03;;;1.60;;
74241;SDS011;62599;49.146;10.426;2023-02-25T11:11:37;1.35;;;1.25;;
74241;SDS011;62599;49.146;10.426;2023-02-25T11:16:35;3.15;;;0.52;;
74241;SDS011;62599;49.146;10.426;2023-02-25T11:21:50;0.65;;;0.63;;
74241;SDS011;62599;49.146;10.426;2023-02-25T11:24:18;4.38;;;0.70;;
74241;SDS011;62599;49.146;10.426;2023-02-25T11:26:55;5.07;;;0.95;;
74241;SDS011;62599;49.146;10.426;2023-02-25T11:29:27;1.60;;;0.80;;
74241;SDS011;62599;49.146;10.426;2023-02-25T11:32:08;0.98;;;0.60;;
74241;SDS011;62599;49.146;10.426;2023-02-25T11:34:50;4.97;;;0.85;;
74241;SDS011;62599;49.146;10.426;2023-02-25T11:40:18;3.95;;;1.17;;
74241;SDS011;62599;49.146;10.426;2023-02-25T11:43:33;3.72;;;0.73;;
74241;SDS011;62599;49.146;10.426;2023-02-25T11:45:54;1.65;;;0.77;;
74241;SDS011;62599;49.146;10.426;2023-02-25T11:48:27;3.08;;;0.85;;
74241;SDS011;62599;49.146;10.426;2023-02-25T12:01:39;0.60;;;0.40;;
74241;SDS011;62599;49.146;10.426;2023-02-25T12:04:33;1.90;;;0.57;;
74241;SDS011;62599;49.146;10.426;2023-02-25T12:24:14;1.25;;;0.52;;
74241;SDS011;62599;49.146;10.426;2023-02-25T12:43:21;1.33;;;0.63;;
74241;SDS011;62599;49.146;10.426;2023-02-25T12:48:47;2.15;;;1.05;;
74241;SDS011;62599;49.146;10.426;2023-02-25T13:00:28;0.73;;;0.55;;
74241;SDS011;62599;49.146;10.426;2023-02-25T13:13:29;0.40;;;0.40;;
74241;SDS011;62599;49.146;10.426;2023-02-25T13:16:25;0.95;;;0.55;;
74241;SDS011;62599;49.146;10.426;2023-02-25T13:19:17;0.43;;;0.22;;
74241;SDS011;62599;49.146;10.426;2023-02-25T13:33:01;1.48;;;0.65;;
74241;SDS011;62599;49.146;10.426;2023-02-25T13:35:39;1.27;;;0.82;;
74241;SDS011;62599;49.146;10.426;2023-02-25T13:52:18;6.25;;;1.30;;
74241;SDS011;62599;49.146;10.426;2023-02-25T14:05:59;1.48;;;0.65;;
74241;SDS011;62599;49.146;10.426;2023-02-25T14:11:42;3.20;;;1.33;;
74241;SDS011;62599;49.146;10.426;2023-02-25T14:30:41;0.32;;;0.32;;
74241;SDS011;62599;49.146;10.426;2023-02-25T14:44:41;1.58;;;0.75;;
74241;SDS011;62599;49.146;10.426;2023-02-25T14:47:41;1.80;;;1.20;;
74241;SDS011;62599;49.146;10.426;2023-02-25T14:56:01;5.40;;;1.88;;
74241;SDS011;62599;49.146;10.426;2023-02-25T15:01:15;1.87;;;0.23;;
74241;SDS011;62599;49.146;10.426;2023-02-25T15:09:36;0.47;;;0.25;;
74241;SDS011;62599;49.146;10.426;2023-02-25T15:14:52;7.20;;;3.00;;
74241;SDS011;62599;49.146;10.426;2023-02-25T15:22:33;2.10;;;1.30;;
74241;SDS011;62599;49.146;10.426;2023-02-25T15:27:50;0.93;;;0.93;;
74241;SDS011;62599;49.146;10.426;2023-02-25T15:30:23;1.45;;;0.90;;
74241;SDS011;62599;49.146;10.426;2023-02-25T15:33:12;0.50;;;0.43;;
74241;SDS011;62599;49.146;10.426;2023-02-25T15:35:51;2.35;;;1.00;;
74241;SDS011;62599;49.146;10.426;2023-02-25T15:38:19;3.80;;;2.00;;
74241;SDS011;62599;49.146;10.426;2023-02-25T15:49:03;0.50;;;0.40;;
74241;SDS011;62599;49.146;10.426;2023-02-25T15:51:49;0.95;;;0.93;;
74241;SDS011;62599;49.146;10.426;2023-02-25T15:56:54;0.43;;;0.30;;
74241;SDS011;62599;49.146;10.426;2023-02-25T15:59:38;0.35;;;0.30;;
74241;SDS011;62599;49.146;10.426;2023-02-25T16:13:20;0.13;;;0.13;;
74241;SDS011;62599;49.146;10.426;2023-02-25T16:15:51;6.35;;;1.85;;
74241;SDS011;62599;49.146;10.426;2023-02-25T16:21:04;0.57;;;0.25;;
74241;SDS011;62599;49.146;10.426;2023-02-25T16:23:32;1.17;;;1.10;;
74241;SDS011;62599;49.146;10.426;2023-02-25T16:28:51;0.32;;;0.30;;
74241;SDS011;62599;49.146;10.426;2023-02-25T16:34:17;2.15;;;0.65;;
74241;SDS011;62599;49.146;10.426;2023-02-25T16:36:53;0.45;;;0.43;;
74241;SDS011;62599;49.146;10.426;2023-02-25T16:39:29;0.68;;;0.57;;
74241;SDS011;62599;49.146;10.426;2023-02-25T16:42:09;3.80;;;1.40;;
74241;SDS011;62599;49.146;10.426;2023-02-25T16:44:43;3.35;;;0.93;;
74241;SDS011;62599;49.146;10.426;2023-02-25T16:47:21;3.13;;;0.80;;
74241;SDS011;62599;49.146;10.426;2023-02-25T16:49:49;1.27;;;0.73;;
74241;SDS011;62599;49.146;10.426;2023-02-25T16:52:17;1.45;;;0.95;;
74241;SDS011;62599;49.146;10.426;2023-02-25T16:54:45;0.20;;;0.20;;
74241;SDS011;62599;49.146;10.426;2023-02-25T16:57:18;2.15;;;1.30;;
74241;SDS011;62599;49.146;10.426;2023-02-25T16:59:45;0.32;;;0.32;;
74241;SDS011;62599;49.146;10.426;2023-02-25T17:04:41;0.50;;;0.37;;
74241;SDS011;62599;49.146;10.426;2023-02-25T17:07:17;0.30;;;0.30;;
74241;SDS011;62599;49.146;10.426;2023-02-25T17:09:52;0.40;;;0.38;;
74241;SDS011;62599;49.146;10.426;2023-02-25T17:12:34;1.08;;;0.35;;
74241;SDS011;62599;49.146;10.426;2023-02-25T17:15:06;0.32;;;0.32;;
74241;SDS011;62599;49.146;10.426;2023-02-25T17:17:39;0.35;;;0.35;;
74241;SDS011;62599;49.146;10.426;2023-02-25T17:20:11;1.10;;;0.88;;
74241;SDS011;62599;49.146;10.426;2023-02-25T17:22:40;0.30;;;0.20;;
74241;SDS011;62599;49.146;10.426;2023-02-25T17:25:05;1.88;;;0.95;;
74241;SDS011;62599;49.146;10.426;2023-02-25T17:27:40;0.50;;;0.50;;
74241;SDS011;62599;49.146;10.426;2023-02-25T17:30:52;1.13;;;1.05;;
74241;SDS011;62599;49.146;10.426;2023-02-25T17:32:59;0.70;;;0.63;;
74241;SDS011;62599;49.146;10.426;2023-02-25T17:35:25;1.75;;;0.95;;
74241;SDS011;62599;49.146;10.426;2023-02-25T17:37:52;0.95;;;0.85;;
74241;SDS011;62599;49.146;10.426;2023-02-25T17:40:19;1.20;;;0.80;;
74241;SDS011;62599;49.146;10.426;2023-02-25T17:42:48;2.28;;;1.40;;
74241;SDS011;62599;49.146;10.426;2023-02-25T17:48:00;5.13;;;2.25;;
74241;SDS011;62599;49.146;10.426;2023-02-25T17:50:30;6.18;;;2.13;;
74241;SDS011;62599;49.146;10.426;2023-02-25T17:52:56;1.58;;;1.48;;
74241;SDS011;62599;49.146;10.426;2023-02-25T17:55:27;1.20;;;0.93;;
74241;SDS011;62599;49.146;10.426;2023-02-25T17:57:57;1.77;;;1.30;;
74241;SDS011;62599;49.146;10.426;2023-02-25T18:00:32;1.60;;;0.85;;
74241;SDS011;62599;49.146;10.426;2023-02-25T18:03:14;0.57;;;0.38;;
74241;SDS011;62599;49.146;10.426;2023-02-25T18:06:25;4.50;;;2.22;;
74241;SDS011;62599;49.146;10.426;2023-02-25T18:08:52;0.52;;;0.15;;
74241;SDS011;62599;49.146;10.426;2023-02-25T18:11:29;1.08;;;0.75;;
74241;SDS011;62599;49.146;10.426;2023-02-25T18:13:59;0.52;;;0.38;;
74241;SDS011;62599;49.146;10.426;2023-02-25T18:18:54;0.27;;;0.20;;
74241;SDS011;62599;49.146;10.426;2023-02-25T18:21:21;2.47;;;1.10;;
74241;SDS011;62599;49.146;10.426;2023-02-25T18:23:47;0.22;;;0.22;;
74241;SDS011;62599;49.146;10.426;2023-02-25T18:26:18;214.57;;;77.65;;
74241;SDS011;62599;49.146;10.426;2023-02-25T18:28:45;291.70;;;89.18;;
74241;SDS011;62599;49.146;10.426;2023-02-25T18:31:11;80.95;;;26.35;;
74241;SDS011;62599;49.146;10.426;2023-02-25T18:33:39;11.20;;;7.03;;
74241;SDS011;62599;49.146;10.426;2023-02-25T18:36:05;0.40;;;0.40;;
74241;SDS011;62599;49.146;10.426;2023-02-25T18:38:33;1.30;;;0.55;;
74241;SDS011;62599;49.146;10.426;2023-02-25T18:41:01;0.68;;;0.65;;
74241;SDS011;62599;49.146;10.426;2023-02-25T18:43:30;0.90;;;0.47;;
74241;SDS011;62599;49.146;10.426;2023-02-25T18:45:59;0.80;;;0.73;;
74241;SDS011;62599;49.146;10.426;2023-02-25T18:48:27;0.52;;;0.52;;
74241;SDS011;62599;49.146;10.426;2023-02-25T18:50:55;0.98;;;0.55;;
74241;SDS011;62599;49.146;10.426;2023-02-25T18:53:23;1.42;;;0.90;;
74241;SDS011;62599;49.146;10.426;2023-02-25T18:55:50;1.05;;;0.60;;
74241;SDS011;62599;49.146;10.426;2023-02-25T18:58:16;2.97;;;1.20;;
74241;SDS011;62599;49.146;10.426;2023-02-25T19:00:43;8.45;;;1.65;;
74241;SDS011;62599;49.146;10.426;2023-02-25T19:03:31;3.53;;;1.50;;
74241;SDS011;62599;49.146;10.426;2023-02-25T19:06:01;4.60;;;1.88;;
74241;SDS011;62599;49.146;10.426;2023-02-25T19:08:27;6.72;;;1.83;;
74241;SDS011;62599;49.146;10.426;2023-02-25T19:10:52;0.68;;;0.43;;
74241;SDS011;62599;49.146;10.426;2023-02-25T19:13:19;6.38;;;1.15;;
74241;SDS011;62599;49.146;10.426;2023-02-25T19:15:48;1.27;;;0.30;;